createdAt,value
2018-06-13T00:02:28.381Z,57.66
2018-06-13T00:07:31.431Z,58.25
2018-06-13T00:12:34.461Z,58.22
2018-06-13T00:17:37.563Z,57.81
2018-06-13T00:22:40.569Z,58.07
2018-06-13T00:27:43.601Z,58.42
2018-06-13T00:32:46.613Z,58.61
2018-06-13T00:37:49.614Z,58.75
2018-06-13T00:42:52.637Z,58.86
2018-06-13T00:47:55.654Z,59.29
2018-06-13T00:52:58.715Z,59.93
2018-06-13T00:58:01.745Z,59.83
2018-06-13T01:03:04.857Z,60.32
2018-06-13T01:08:07.852Z,59.93
2018-06-13T01:13:10.885Z,60.27
2018-06-13T01:18:13.909Z,59.99
2018-06-13T01:23:16.960Z,60.09
2018-06-13T01:28:20.045Z,60.05
2018-06-13T01:33:23.086Z,59.42
2018-06-13T01:38:26.081Z,59.67
2018-06-13T01:43:29.137Z,60.39
2018-06-13T01:48:32.161Z,59.92
2018-06-13T01:53:35.255Z,59.70
2018-06-13T01:58:38.296Z,59.56
2018-06-13T02:03:41.325Z,59.99
2018-06-13T02:08:44.411Z,59.07
2018-06-13T02:13:47.468Z,59.31
2018-06-13T02:18:50.502Z,58.21
2018-06-13T02:23:53.536Z,58.54
2018-06-13T02:28:56.590Z,58.61
2018-06-13T02:33:59.663Z,58.45
2018-06-13T02:39:03.176Z,58.92
2018-06-13T02:44:06.250Z,58.79
2018-06-13T02:49:09.328Z,58.48
2018-06-13T02:54:12.378Z,58.76
2018-06-13T02:59:15.394Z,58.12
2018-06-13T03:04:18.443Z,58.23
2018-06-13T03:09:21.991Z,58.61
2018-06-13T03:14:25.038Z,58.75
2018-06-13T03:19:28.097Z,58.45
2018-06-13T03:24:31.112Z,57.88
2018-06-13T03:29:34.165Z,58.29
2018-06-13T03:34:37.222Z,57.68
2018-06-13T03:39:40.282Z,58.85
2018-06-13T03:44:43.370Z,58.80
2018-06-13T03:49:46.372Z,58.62
2018-06-13T03:54:49.401Z,58.46
2018-06-13T03:59:52.528Z,57.92
2018-06-13T04:04:55.600Z,58.87
2018-06-13T04:09:58.742Z,58.46
2018-06-13T04:15:01.813Z,58.24
2018-06-13T04:20:05.090Z,58.87
2018-06-13T04:25:08.106Z,58.39
2018-06-13T04:30:11.114Z,58.65
2018-06-13T04:35:14.110Z,59.32
2018-06-13T04:40:17.161Z,58.96
2018-06-13T04:45:20.212Z,59.42
2018-06-13T04:50:23.239Z,59.71
2018-06-13T04:55:26.363Z,59.35
2018-06-13T05:00:29.463Z,58.98
2018-06-13T05:05:32.529Z,58.90
2018-06-13T05:10:35.602Z,58.27
2018-06-13T05:15:38.654Z,57.77
2018-06-13T05:20:41.732Z,57.18
2018-06-13T05:25:45.205Z,56.96
2018-06-13T05:30:48.208Z,57.04
2018-06-13T05:35:51.261Z,56.49
2018-06-13T05:40:54.348Z,56.50
2018-06-13T05:45:57.366Z,56.35
2018-06-13T05:51:00.401Z,56.55
2018-06-13T05:56:03.413Z,55.75
2018-06-13T06:01:06.472Z,54.65
2018-06-13T06:06:09.417Z,54.30
2018-06-13T06:11:12.385Z,54.10
2018-06-13T06:16:15.404Z,53.20
2018-06-13T06:21:18.447Z,53.15
2018-06-13T06:26:21.539Z,52.52
2018-06-13T06:31:24.542Z,52.34
2018-06-13T06:36:27.554Z,51.62
2018-06-13T06:41:30.594Z,50.87
2018-06-13T06:46:33.591Z,50.68
2018-06-13T06:51:36.626Z,50.65
2018-06-13T06:56:39.642Z,50.50
2018-06-13T07:01:42.646Z,51.09
2018-06-13T07:06:45.650Z,50.89
2018-06-13T07:11:48.679Z,51.39
2018-06-13T07:16:51.772Z,51.26
2018-06-13T07:21:54.789Z,51.32
2018-06-13T07:26:57.798Z,51.23
2018-06-13T07:32:00.798Z,50.02
2018-06-13T07:37:03.873Z,49.11
2018-06-13T07:42:06.948Z,50.07
2018-06-13T07:47:10.052Z,50.70
2018-06-13T07:52:13.036Z,53.71
2018-06-13T07:57:17.994Z,57.55
2018-06-13T08:02:21.114Z,59.01
2018-06-13T08:07:25.182Z,60.00
2018-06-13T08:12:28.142Z,59.72
2018-06-13T08:17:31.141Z,57.46
2018-06-13T08:22:34.138Z,54.44
2018-06-13T08:27:50.123Z,52.41
2018-06-13T08:32:53.166Z,52.75
2018-06-13T08:37:56.169Z,53.39
2018-06-13T08:42:59.158Z,52.62
2018-06-13T08:48:02.227Z,50.46
2018-06-13T08:53:05.278Z,49.75
2018-06-13T08:58:08.259Z,49.26
2018-06-13T09:03:11.265Z,48.08
2018-06-13T09:08:14.232Z,45.49
2018-06-13T09:13:17.227Z,44.99
2018-06-13T09:18:20.278Z,43.32
2018-06-13T09:23:23.275Z,42.60
2018-06-13T09:28:26.350Z,41.46
2018-06-13T09:33:29.333Z,40.84
2018-06-13T09:38:32.376Z,41.08
2018-06-13T09:43:35.390Z,40.49
2018-06-13T09:48:38.464Z,40.57
2018-06-13T09:53:41.441Z,40.35
2018-06-13T09:58:50.236Z,40.64
2018-06-13T10:03:53.239Z,40.91
2018-06-13T10:08:56.265Z,42.01
2018-06-13T10:13:59.270Z,42.65
2018-06-13T10:19:02.318Z,41.67
2018-06-13T10:24:05.418Z,42.91
2018-06-13T10:29:08.386Z,42.22
2018-06-13T10:34:11.452Z,41.90
2018-06-13T10:39:14.437Z,40.17
2018-06-13T10:44:17.465Z,40.52
2018-06-13T10:49:20.469Z,39.75
2018-06-13T10:54:23.506Z,39.01
2018-06-13T10:59:26.513Z,40.07
2018-06-13T11:04:29.493Z,41.84
2018-06-13T11:09:32.502Z,42.67
2018-06-13T11:14:35.557Z,42.96
2018-06-13T11:19:38.570Z,43.30
2018-06-13T11:24:41.564Z,42.65
2018-06-13T11:29:44.540Z,42.41
2018-06-13T11:34:52.110Z,41.84
2018-06-13T11:39:55.101Z,41.44
2018-06-13T11:44:58.082Z,40.65
2018-06-13T11:50:01.115Z,40.85
2018-06-13T11:55:04.473Z,40.05
2018-06-13T12:00:07.526Z,39.71
2018-06-13T12:05:10.674Z,40.00
2018-06-13T12:10:13.658Z,39.28
2018-06-13T12:15:16.718Z,39.20
2018-06-13T12:20:19.734Z,38.18
2018-06-13T12:25:22.757Z,38.10
2018-06-13T12:30:25.742Z,36.14
2018-06-13T12:35:29.657Z,35.81
2018-06-13T12:40:32.670Z,35.51
2018-06-13T12:45:35.802Z,34.78
2018-06-13T12:50:38.765Z,34.63
2018-06-13T12:55:41.762Z,35.20
2018-06-13T13:00:44.745Z,34.93
2018-06-13T13:05:47.801Z,35.23
2018-06-13T13:10:50.786Z,36.17
2018-06-13T13:15:53.819Z,36.87
2018-06-13T13:20:56.851Z,36.65
2018-06-13T13:25:59.856Z,36.58
2018-06-13T13:31:02.902Z,37.65
2018-06-13T13:36:06.098Z,36.88
2018-06-13T13:41:09.070Z,36.49
2018-06-13T13:46:12.046Z,35.77
2018-06-13T13:51:15.022Z,36.09
2018-06-13T13:56:18.100Z,36.46
2018-06-13T14:01:21.088Z,36.80
2018-06-13T14:06:24.146Z,37.46
2018-06-13T14:11:27.134Z,37.35
2018-06-13T14:16:30.160Z,37.32
2018-06-13T14:21:33.150Z,39.13
2018-06-13T14:26:36.157Z,39.76
2018-06-13T14:31:39.146Z,38.90
2018-06-13T14:36:42.128Z,38.57
2018-06-13T14:41:45.174Z,37.57
2018-06-13T14:46:50.021Z,36.26
2018-06-13T14:51:54.243Z,36.38
2018-06-13T14:56:57.250Z,35.67
2018-06-13T15:02:00.343Z,35.65
2018-06-13T15:07:05.482Z,35.50
2018-06-13T15:12:08.569Z,35.44
2018-06-13T15:17:11.589Z,35.84
2018-06-13T15:22:14.642Z,36.03
2018-06-13T15:27:17.629Z,36.24
2018-06-13T15:32:20.649Z,34.85
2018-06-13T15:37:23.701Z,36.14
2018-06-13T15:42:26.747Z,35.14
2018-06-13T15:47:30.030Z,33.39
2018-06-13T15:52:33.071Z,34.36
2018-06-13T15:57:36.382Z,34.30
2018-06-13T16:02:39.389Z,34.06
2018-06-13T16:07:42.489Z,34.52
2018-06-13T16:12:45.542Z,34.83
2018-06-13T16:17:48.610Z,35.03
2018-06-13T16:22:51.620Z,33.99
2018-06-13T16:27:54.673Z,35.25
2018-06-13T16:32:57.645Z,34.34
2018-06-13T16:38:00.669Z,34.79
2018-06-13T16:43:03.743Z,35.61
2018-06-13T16:48:06.786Z,36.68
2018-06-13T16:53:22.617Z,37.21
2018-06-13T16:58:25.652Z,36.88
2018-06-13T17:03:28.751Z,35.75
2018-06-13T17:08:31.775Z,34.35
2018-06-13T17:13:34.813Z,34.47
2018-06-13T17:18:37.843Z,35.82
2018-06-13T17:23:40.846Z,35.38
2018-06-13T17:28:43.980Z,35.46
2018-06-13T17:33:47.006Z,35.46
2018-06-13T17:38:50.050Z,35.51
2018-06-13T17:43:53.065Z,36.16
2018-06-13T17:48:56.509Z,35.91
2018-06-13T17:53:59.571Z,36.31
2018-06-13T17:59:02.852Z,36.07
2018-06-13T18:04:05.931Z,36.46
2018-06-13T18:09:09.397Z,36.99
2018-06-13T18:14:12.401Z,37.19
2018-06-13T18:19:15.474Z,37.48
2018-06-13T18:24:18.518Z,38.58
2018-06-13T18:29:21.600Z,38.75
2018-06-13T18:34:24.643Z,39.31
2018-06-13T18:39:27.758Z,39.11
2018-06-13T18:44:32.782Z,39.53
2018-06-13T18:49:38.264Z,40.20
2018-06-13T18:54:41.413Z,41.04
2018-06-13T18:59:44.452Z,41.46
2018-06-13T19:04:47.446Z,42.23
2018-06-13T19:09:50.489Z,42.31
2018-06-13T19:14:53.565Z,42.47
2018-06-13T19:19:56.669Z,42.63
2018-06-13T19:25:00.190Z,42.51
2018-06-13T19:30:03.329Z,43.22
2018-06-13T19:35:06.348Z,43.69
2018-06-13T19:40:09.348Z,43.56
2018-06-13T19:45:12.373Z,44.78
2018-06-13T19:50:15.390Z,45.16
2018-06-13T19:55:24.285Z,45.38
2018-06-13T20:00:27.402Z,45.81
2018-06-13T20:05:36.396Z,45.96
2018-06-13T20:10:39.454Z,46.53
2018-06-13T20:15:48.302Z,47.04
2018-06-13T20:20:51.335Z,48.13
2018-06-13T20:25:59.909Z,47.77
2018-06-13T20:31:08.635Z,48.14
2018-06-13T20:36:11.765Z,48.18
2018-06-13T20:41:14.801Z,48.95
2018-06-13T20:46:17.942Z,49.37
2018-06-13T20:51:21.103Z,50.35
2018-06-13T20:56:24.115Z,49.66
2018-06-13T21:01:27.128Z,50.34
2018-06-13T21:06:30.128Z,50.90
2018-06-13T21:11:33.147Z,51.30
2018-06-13T21:16:36.277Z,51.53
2018-06-13T21:21:39.370Z,51.28
2018-06-13T21:26:42.375Z,51.99
2018-06-13T21:31:45.494Z,52.10
2018-06-13T21:36:48.520Z,52.94
2018-06-13T21:41:51.567Z,52.80
2018-06-13T21:46:54.634Z,53.48
2018-06-13T21:51:57.707Z,53.72
2018-06-13T21:57:01.135Z,53.76
2018-06-13T22:02:04.194Z,54.40
2018-06-13T22:07:07.442Z,54.67
2018-06-13T22:12:10.483Z,55.45
2018-06-13T22:17:13.498Z,55.63
2018-06-13T22:22:16.497Z,55.51
2018-06-13T22:27:19.714Z,55.99
2018-06-13T22:32:22.734Z,56.27
2018-06-13T22:37:25.750Z,56.40
2018-06-13T22:42:29.022Z,56.59
2018-06-13T22:47:32.026Z,56.53
2018-06-13T22:52:35.034Z,56.61
2018-06-13T22:57:38.102Z,56.98
2018-06-13T23:02:41.110Z,56.39
2018-06-13T23:07:44.134Z,57.38
2018-06-13T23:12:47.148Z,57.61
2018-06-13T23:17:50.183Z,57.54
2018-06-13T23:22:53.359Z,57.97
2018-06-13T23:27:56.457Z,58.50
2018-06-13T23:32:59.799Z,59.13
2018-06-13T23:38:03.209Z,59.37
2018-06-13T23:43:06.353Z,59.34
2018-06-13T23:48:09.431Z,59.46
2018-06-13T23:53:12.494Z,60.94
2018-06-13T23:58:15.546Z,60.45
